Current Weather (METAR) For Manchester Airport

All times on the weather descriptions are local

Observed at 01:50 - (18 mins ago)


10°C


Clouds:
Wind: 200° at 08 knots
Visibility: Greater than 10km
QNH: 1021
Dew Point: 5°C
Runway in Use: Runways 23L/R

Sunrise Today: 06:01
Sunset Today: 20:15

Forecast Weather (TAF) For Manchester Airport

Issued at 01:00 - (13 days ago)


Runway in Use: Likely Runways 23L/R

Forecast valid until 01:00 on Wednesday

METAR/TAF RAW METAR / TAF

EGCC 170050Z AUTO 20008KT 9999 NCD 10/05 Q1021

Weather Widget

Put weather from any of our airports on your website with our weather widget.

Find Another Search

Airport Search


Please Wait Please Wait - Loading
Close
Close

Login

Username:

Password:

Remember Me:

Remember me on this computer

Forgotten your password? Get a reset password sent to your registered e-mail address

Close

User Private Message

Subject:

Message: